• Join FlightAware (Why Join?)
  • Login
  • US Flag 
Gobble Gobble! 
06:16PM EST


 

Airport Tracker/Info


-or-


 

Live Flight TrackerFlight Track Log ✈ EJA396 ✈ 09-May-2014 ✈ KPDK - KMDW

Flight Track Log - Related Links

Times and Time Zones

All times are in EDT time to prevent confusion due to time zone crossing. See the EJA396 flight status page for this flight to view local times or setup timezone preferences in your user account.

Time Position Orientation Groundspeed Altitude Reporting Facility
EDT Latitude Longitude Course Direction KTS MPH feet Rate Location/Type
01:08PM 33.8667 -84.3500 320° Northwest 209 241 4,000  Level Atlanta TRACON
01:09PM 33.9167 -84.4000 320° Northwest 224 258 6,800 1,680 Climbing Atlanta TRACON
01:10PM 33.9836 -84.4347 337° Northwest 245 282 7,700 2,040 Climbing Atlanta Center
01:11PM 34.0544 -84.4875 328° Northwest 270 311 11,300 3,600 Climbing Atlanta Center
01:13PM 34.2269 -84.6067 330° Northwest 348 400 18,500 3,300 Climbing Atlanta Center
01:14PM 34.3122 -84.6675 329° Northwest 353 406 21,300 2,820 Climbing Atlanta Center
01:15PM 34.4017 -84.7286 331° Northwest 358 412 24,200 2,700 Climbing Atlanta Center
01:16PM 34.5081 -84.7522 350° North 358 412 26,800 2,700 Climbing Atlanta Center
01:17PM 34.6122 -84.7758 349° North 374 430 29,600 2,400 Climbing Atlanta Center
01:18PM 34.7228 -84.8019 349° North 385 443 31,600 1,980 Climbing Atlanta Center
01:19PM 34.8353 -84.8233 351° North 397 457 33,600 1,980 Climbing Atlanta Center
01:20PM 34.9458 -84.8497 349° North 402 463 35,600 1,860 Climbing Atlanta Center
01:21PM 35.0542 -84.8761 349° North 402 463 37,400 1,200 Climbing Atlanta Center
01:22PM 35.1667 -84.9000 350° North 402 463 38,000 300 Climbing Atlanta Center
01:23PM 35.2811 -84.9242 350° North 407 468 38,000  Level Atlanta Center
01:24PM 35.3958 -84.9508 349° North 412 474 38,000  Level Atlanta Center
01:25PM 35.5103 -84.9750 350° North 412 474 38,000  Level Atlanta Center
01:26PM 35.6206 -85.0019 349° North 412 474 38,000  Level Atlanta Center
01:27PM 35.7372 -85.0314 348° North 412 474 38,000  Level Atlanta Center
01:28PM 35.8539 -85.0611 348° North 412 474 38,000  Level Atlanta Center
01:29PM 35.9336 -85.0700 355° North 419 482 38,000  Level Indianapolis Center
01:30PM 36.0461 -85.0950 350° North 420 483 38,000  Level Indianapolis Center
01:31PM 36.1619 -85.1172 351° North 420 483 38,000  Level Indianapolis Center
01:32PM 36.2783 -85.1400 351° North 420 483 38,000  Level Indianapolis Center
01:33PM 36.3939 -85.1642 350° North 420 483 38,000  Level Indianapolis Center
01:34PM 36.5339 -85.1931 351° North 420 483 38,000  Level Indianapolis Center
01:35PM 36.6497 -85.2169 351° North 421 484 38,000  Level Indianapolis Center
01:36PM 36.7658 -85.2400 351° North 421 484 38,000  Level Indianapolis Center
01:37PM 36.8817 -85.2650 350° North 421 484 38,000  Level Indianapolis Center
01:38PM 36.9981 -85.2881 351° North 421 484 38,000  Level Indianapolis Center
01:39PM 37.1225 -85.3136 351° North 421 484 38,000  Level Indianapolis Center
01:40PM 37.2367 -85.3386 350° North 420 483 38,000  Level Indianapolis Center
01:41PM 37.3533 -85.3625 351° North 420 483 38,000  Level Indianapolis Center
01:42PM 37.4903 -85.3917 350° North 421 484 38,000  Level Indianapolis Center
01:43PM 37.6072 -85.4156 351° North 421 484 38,000  Level Indianapolis Center
01:44PM 37.7244 -85.4400 351° North 422 486 38,000  Level Indianapolis Center
01:45PM 37.8489 -85.4661 351° North 422 486 38,000  Level Indianapolis Center
01:46PM 37.9667 -85.4925 350° North 424 488 38,000  Level Indianapolis Center
01:47PM 38.0844 -85.5167 351° North 424 488 38,000  Level Indianapolis Center
01:48PM 38.2025 -85.5428 350° North 426 490 38,000 -300 Level Indianapolis Center
01:49PM 38.3203 -85.5681 350° North 426 490 37,500 -1,380 Descending Indianapolis Center
01:50PM 38.4436 -85.5947 350° North 438 504 35,200 -1,260 Descending Indianapolis Center
01:51PM 38.5997 -85.6292 350° North 466 536 35,000 -120 Descending Indianapolis Center
01:53PM 38.7281 -85.6561 351° North 471 542 35,000 -900 Level Indianapolis Center
01:54PM 38.8606 -85.6850 350° North 476 548 33,200 -1,920 Descending Indianapolis Center
01:55PM 38.9967 -85.7150 350° North 491 565 31,100 -1,560 Descending Indianapolis Center
01:56PM 39.1289 -85.7431 351° North 490 564 30,000 -540 Descending Indianapolis Center
01:57PM 39.2572 -85.7717 350° North 477 549 30,000  Level Indianapolis Center
01:58PM 39.4167 -85.8069 350° North 481 554 30,000 -60 Level Indianapolis Center
01:59PM 39.5511 -85.8364 350° North 489 563 29,900 -960 Descending Indianapolis Center
02:00PM 39.6867 -85.8661 350° North 492 566 28,000 -1,920 Descending Indianapolis Center
02:01PM 39.8156 -85.8953 350° North 485 558 26,000 -1,800 Descending Indianapolis Center
02:02PM 39.9372 -85.9236 350° North 457 526 24,400 -1,020 Descending Indianapolis Center
02:03PM 40.0825 -85.9572 350° North 449 517 24,000 -240 Descending Indianapolis Center
02:04PM 40.1908 -86.0089 340° North 421 484 24,000 -540 Level Indianapolis Center
02:05PM 40.3019 -86.0617 340° North 426 490 23,000 -1,380 Descending Indianapolis Center
02:06PM 40.4114 -86.1153 340° North 424 488 21,200 -1,800 Descending Indianapolis Center
02:07PM 40.5186 -86.1683 339° North 419 482 19,400 -2,040 Descending Indianapolis Center
02:08PM 40.6411 -86.2300 339° North 399 459 17,100 -1,920 Descending Indianapolis Center
02:09PM 40.7314 -86.2736 340° North 383 441 15,600 -1,500 Descending Chicago Center
02:10PM 40.8331 -86.3244 339° North 387 445 14,100 -1,500 Descending Chicago Center
02:11PM 40.9297 -86.3733 339° North 374 430 12,600 -1,500 Descending Chicago Center
02:12PM 41.0222 -86.4200 339° North 358 412 11,000 -960 Descending Chicago Center
02:13PM 41.0906 -86.5344 308° West 337 388 10,700 -540 Descending Chicago Center
02:14PM 41.1681 -86.5922 331° Northwest 326 375 10,000 -360 Descending Chicago Center
02:15PM 41.2547 -86.6397 338° Northwest 334 384 10,000 -60 Level Chicago Center
02:16PM 41.3428 -86.6739 344° North 332 382 9,900 -540 Descending Chicago Center
02:17PM 41.4147 -86.7378 326° Northwest 287 330 9,000 -900 Descending Chicago Center
02:18PM 41.4689 -86.8178 312° West 276 318 8,100 -480 Descending Chicago Center
02:19PM 41.4825 -86.9039 282° West 234 269 8,000 -60 Descending Chicago Center
02:20PM 41.4781 -86.9914 266° West 237 273 8,000 -180 Level Chicago Center
02:21PM 41.5122 -87.0811 297° West 271 312 7,700 -780 Descending Chicago Center
02:22PM 41.5442 -87.1628 298° West 258 297 6,400 -840 Descending Chicago Center
02:23PM 41.6011 -87.2367 316° Northwest 264 304 6,000 -240 Descending Chicago Center
02:25PM 41.6536 -87.3022 317° Northwest 261 300 6,000 -780 Level Chicago Center
02:26PM 41.7108 -87.3739 317° Northwest 261 300 4,500 -1,020 Descending Chicago Center
02:27PM 41.7631 -87.4397 317° Northwest 261 300 4,000 -360 Descending Chicago Center
02:28PM 41.8114 -87.5006 317° Northwest 242 278 3,800 -780 Descending Chicago Center
02:29PM 41.8425 -87.5678 302° West 211 243 2,500 -840 Descending Chicago Center
02:30PM 41.8264 -87.6272 250° West 170 196 2,100 -240 Descending Chicago Center
02:31PM 41.8181 -87.6956 261° West 169 194 2,000 -600 Descending Chicago Center
02:32PM 41.8008 -87.7369 241° Southwest 125 144 900 -660 Descending Chicago Center
02:33PM 41.7822 -87.7597 222° Southwest 109 125 700 -240 Descending Chicago Center